Time;durP1;ratioP1;P1;durP2;ratioP2;P2;SDS_P1;SDS_P2;PMS_P1;PMS_P2;Temp;Humidity;BMP_temperature;BMP_pressure;BME280_temperature;BME280_humidity;BME280_pressure;Samples;Min_cycle;Max_cycle;Signal;HPM_P1;HPM_P2
2022/01/27 00:05:53;;;;;;;;;;;;;;;;;;5031203;28;20060;-70
2022/01/27 00:08:28;;;;;;;;;;;;;;;;;;5024453;28;19917;-69
2022/01/27 00:13:25;;;;;;;;;;;;;;;;;;5023531;28;20321;-70
2022/01/27 00:15:59;;;;;;;;;;;;;;;;;;5030024;28;20082;-70
2022/01/27 00:18:24;;;;;;;;;;;;;;;;;;5025093;28;19917;-70
2022/01/27 00:20:49;;;;;;;;;;;;;;;;;;5025237;28;19920;-70
2022/01/27 00:23:14;;;;;;;;;;;;;;;;;;5025541;28;19917;-70
2022/01/27 00:25:39;;;;;;;;;;;;;;;;;;5035589;28;19916;-70
2022/01/27 00:28:07;;;;;;;;;;;;;;;;;;5026239;28;19952;-70
2022/01/27 00:30:32;;;;;;;;;;;;;;;;;;5027642;28;20184;-70
2022/01/27 00:32:57;;;;;;;;;;;;;;;;;;5032512;28;20385;-70
2022/01/27 00:35:22;;;;;;;;;;;;;;;;;;5028733;28;19995;-69
2022/01/27 00:37:47;;;;;;;;;;;;;;;;;;5024083;28;19925;-70
2022/01/27 00:40:13;;;;;;;;;;;;;;;;;;5031673;28;19924;-70
2022/01/27 00:42:38;;;;;;;;;;;;;;;;;;5027745;28;19924;-70
2022/01/27 00:45:03;;;;;;;;;;;;;;;;;;5026252;28;19914;-70
2022/01/27 00:47:28;;;;;;;;;;;;;;;;;;5027904;28;20582;-70
2022/01/27 00:49:53;;;;;;;;;;;;;;;;;;5027517;28;20174;-70
2022/01/27 00:52:28;;;;;;;;;;;;;;;;;;5023838;28;20234;-69
2022/01/27 00:54:54;;;;;;;;;;;;;;;;;;5024565;28;20436;-70
2022/01/27 00:57:37;;;;;;;;;;;;;;;;;;5023696;28;20096;-70
2022/01/27 01:00:03;;;;;;;;;;;;;;;;;;5023529;28;20059;-70
2022/01/27 01:05:45;;;;;;;;;;;;;;;;;;5028920;28;19928;-70
2022/01/27 01:07:52;;;;;;;;;;;;;;;;;;5018018;28;20405;-67
2022/01/27 01:15:48;;;;;;;;;;;;;;;;;;5030309;28;20036;-69
2022/01/27 01:20:58;;;;;;;;;;;;;;;;;;5030151;28;19912;-69
2022/01/27 01:34:21;;;;;;;;;;;;;;;;;;5025714;28;20320;-70
2022/01/27 01:36:55;;;;;;;;;;;;;;;;;;5030690;28;19920;-69
2022/01/27 01:39:21;;;;;;;;;;;;;;;;;;5025078;28;19926;-70
2022/01/27 01:41:46;;;;;;;;;;;;;;;;;;5023294;28;19917;-70
2022/01/27 01:44:11;;;;;;;;;;;;;;;;;;5005467;28;19916;-69
2022/01/27 01:46:36;;;;;;;;;;;;;;;;;;5030161;28;20447;-70
2022/01/27 01:49:01;;;;;;;;;;;;;;;;;;5025243;28;19971;-70
2022/01/27 01:51:27;;;;;;;;;;;;;;;;;;5024502;28;20066;-70
2022/01/27 01:53:52;;;;;;;;;;;;;;;;;;5026481;28;19921;-68
2022/01/27 01:56:17;;;;;;;;;;;;;;;;;;5026938;28;19913;-67
2022/01/27 01:58:42;;;;;;;;;;;;;;;;;;5026445;28;20321;-68
2022/01/27 02:01:07;;;;;;;;;;;;;;;;;;5027183;28;19931;-67
2022/01/27 02:03:32;;;;;;;;;;;;;;;;;;5004685;28;20028;-67
2022/01/27 02:05:58;;;;;;;;;;;;;;;;;;5009450;28;19964;-68
2022/01/27 02:18:41;;;;;;;;;;;;;;;;;;5013072;28;19947;-70
2022/01/27 02:21:06;;;;;;;;;;;;;;;;;;5020967;28;19917;-70
2022/01/27 02:23:31;;;;;;;;;;;;;;;;;;5011492;28;19914;-68
2022/01/27 02:25:56;;;;;;;;;;;;;;;;;;5015563;28;19917;-68
2022/01/27 02:28:22;;;;;;;;;;;;;;;;;;5006962;28;19909;-68
2022/01/27 02:30:47;;;;;;;;;;;;;;;;;;5017950;28;19913;-68
2022/01/27 02:33:12;;;;;;;;;;;;;;;;;;5012199;28;19909;-68
2022/01/27 02:35:37;;;;;;;;;;;;;;;;;;5015902;28;19952;-68
2022/01/27 02:38:02;;;;;;;;;;;;;;;;;;5015710;28;20038;-68
2022/01/27 02:40:28;;;;;;;;;;;;;;;;;;5016972;28;19936;-68
2022/01/27 02:42:53;;;;;;;;;;;;;;;;;;5017773;28;20008;-68
2022/01/27 02:45:18;;;;;;;;;;;;;;;;;;5017392;28;19956;-68
2022/01/27 02:47:43;;;;;;;;;;;;;;;;;;5009425;28;20278;-68
2022/01/27 02:50:09;;;;;;;;;;;;;;;;;;5017708;28;20371;-68
2022/01/27 02:52:34;;;;;;;;;;;;;;;;;;5013403;28;19922;-68
2022/01/27 02:54:59;;;;;;;;;;;;;;;;;;5014568;28;20023;-68
2022/01/27 02:57:24;;;;;;;;;;;;;;;;;;5016403;28;20358;-68
2022/01/27 02:59:49;;;;;;;;;;;;;;;;;;5020026;28;19913;-68
2022/01/27 03:02:15;;;;;;;;;;;;;;;;;;5016664;28;20472;-68
2022/01/27 03:04:40;;;;;;;;;;;;;;;;;;5035100;28;19931;-68
2022/01/27 03:07:05;;;;;;;;;;;;;;;;;;5034216;28;19927;-68
2022/01/27 03:09:30;;;;;;;;;;;;;;;;;;5035860;28;20000;-68
2022/01/27 03:11:56;;;;;;;;;;;;;;;;;;5030698;28;19917;-68
2022/01/27 03:14:21;;;;;;;;;;;;;;;;;;5035464;28;20045;-68
2022/01/27 03:16:47;;;;;;;;;;;;;;;;;;5027799;28;20459;-68
2022/01/27 03:19:12;;;;;;;;;;;;;;;;;;5033800;28;20280;-68
2022/01/27 03:21:37;;;;;;;;;;;;;;;;;;5032149;28;20377;-68
2022/01/27 03:24:02;;;;;;;;;;;;;;;;;;5034513;28;19913;-68
2022/01/27 03:26:28;;;;;;;;;;;;;;;;;;5040115;28;20427;-68
2022/01/27 03:28:53;;;;;;;;;;;;;;;;;;5031881;28;19917;-68
2022/01/27 03:31:18;;;;;;;;;;;;;;;;;;5038124;28;19917;-68
2022/01/27 03:33:43;;;;;;;;;;;;;;;;;;5029765;28;20417;-68
2022/01/27 03:36:08;;;;;;;;;;;;;;;;;;5034532;28;19920;-68
2022/01/27 03:38:33;;;;;;;;;;;;;;;;;;5033469;28;19917;-68
2022/01/27 03:40:59;;;;;;;;;;;;;;;;;;5040373;28;19992;-68
2022/01/27 03:43:24;;;;;;;;;;;;;;;;;;5030801;28;19923;-68
2022/01/27 03:45:49;;;;;;;;;;;;;;;;;;5038355;28;20323;-68
2022/01/27 03:48:14;;;;;;;;;;;;;;;;;;5033568;28;20314;-68
2022/01/27 03:50:40;;;;;;;;;;;;;;;;;;5033448;28;20567;-68
2022/01/27 03:53:05;;;;;;;;;;;;;;;;;;5035009;28;20409;-68
2022/01/27 03:55:30;;;;;;;;;;;;;;;;;;5030902;28;20416;-68
2022/01/27 03:57:55;;;;;;;;;;;;;;;;;;5034375;28;19921;-67
2022/01/27 04:00:20;;;;;;;;;;;;;;;;;;5040100;28;19941;-67
2022/01/27 04:02:57;;;;;;;;;;;;;;;;;;5041157;28;19921;-67
2022/01/27 04:05:23;;;;;;;;;;;;;;;;;;5040244;28;20294;-68
2022/01/27 04:07:48;;;;;;;;;;;;;;;;;;5045601;28;19959;-67
2022/01/27 04:10:13;;;;;;;;;;;;;;;;;;5040854;28;19921;-67
2022/01/27 04:12:38;;;;;;;;;;;;;;;;;;5043187;28;20340;-67
2022/01/27 04:15:03;;;;;;;;;;;;;;;;;;5038840;28;20495;-67
2022/01/27 04:17:28;;;;;;;;;;;;;;;;;;5040725;28;20277;-67
2022/01/27 04:19:53;;;;;;;;;;;;;;;;;;5036735;28;20316;-67
2022/01/27 04:22:18;;;;;;;;;;;;;;;;;;5035223;28;20574;-67
2022/01/27 04:24:43;;;;;;;;;;;;;;;;;;5041355;28;20320;-67
2022/01/27 04:27:17;;;;;;;;;;;;;;;;;;5036897;28;20403;-67
2022/01/27 04:29:42;;;;;;;;;;;;;;;;;;5037759;28;19923;-67
2022/01/27 04:32:09;;;;;;;;;;;;;;;;;;5032070;28;20000;-68
2022/01/27 04:34:37;;;;;;;;;;;;;;;;;;5038882;28;19952;-67
2022/01/27 04:37:02;;;;;;;;;;;;;;;;;;5037565;28;19913;-67
2022/01/27 04:39:35;;;;;;;;;;;;;;;;;;5041373;28;20406;-67
2022/01/27 04:42:08;;;;;;;;;;;;;;;;;;5043755;28;19919;-68
2022/01/27 04:44:41;;;;;;;;;;;;;;;;;;5039122;28;19955;-67
2022/01/27 04:47:16;;;;;;;;;;;;;;;;;;5040938;28;19916;-68
2022/01/27 04:49:41;;;;;;;;;;;;;;;;;;5036149;28;19952;-67
2022/01/27 04:52:07;;;;;;;;;;;;;;;;;;5041176;28;19955;-67
2022/01/27 04:54:40;;;;;;;;;;;;;;;;;;5041368;28;20439;-68
2022/01/27 04:57:06;;;;;;;;;;;;;;;;;;5039870;28;20258;-68
2022/01/27 04:59:37;;;;;;;;;;;;;;;;;;5040827;28;20389;-68
2022/01/27 05:02:07;;;;;;;;;;;;;;;;;;5026657;28;19921;-68
2022/01/27 05:04:41;;;;;;;;;;;;;;;;;;5039890;28;19967;-68
2022/01/27 05:07:06;;;;;;;;;;;;;;;;;;5035234;28;19916;-68
2022/01/27 05:09:31;;;;;;;;;;;;;;;;;;5031624;28;19913;-68
2022/01/27 05:12:08;;;;;;;;;;;;;;;;;;5041492;28;19913;-68
2022/01/27 05:14:34;;;;;;;;;;;;;;;;;;5035409;28;20022;-68
2022/01/27 05:16:59;;;;;;;;;;;;;;;;;;5043125;28;20759;-68
2022/01/27 05:19:24;;;;;;;;;;;;;;;;;;5039265;28;19916;-68
2022/01/27 05:21:49;;;;;;;;;;;;;;;;;;5035897;28;19921;-68
2022/01/27 05:24:14;;;;;;;;;;;;;;;;;;5038570;28;19921;-68
2022/01/27 05:26:39;;;;;;;;;;;;;;;;;;5042003;28;20736;-68
2022/01/27 05:29:04;;;;;;;;;;;;;;;;;;5042690;28;19919;-68
2022/01/27 05:31:30;;;;;;;;;;;;;;;;;;5043121;28;19939;-68
2022/01/27 05:33:55;;;;;;;;;;;;;;;;;;5040492;28;19934;-68
2022/01/27 05:36:20;;;;;;;;;;;;;;;;;;5040224;28;19909;-68
2022/01/27 05:38:45;;;;;;;;;;;;;;;;;;5039836;28;20007;-68
2022/01/27 05:41:10;;;;;;;;;;;;;;;;;;5042703;28;20464;-68
2022/01/27 05:43:35;;;;;;;;;;;;;;;;;;5036609;28;19967;-68
2022/01/27 05:46:00;;;;;;;;;;;;;;;;;;5042198;28;19913;-68
2022/01/27 05:48:25;;;;;;;;;;;;;;;;;;5037011;28;19917;-68
2022/01/27 05:50:51;;;;;;;;;;;;;;;;;;5038901;28;19921;-68
2022/01/27 05:53:16;;;;;;;;;;;;;;;;;;5036108;28;19967;-68
2022/01/27 05:55:41;;;;;;;;;;;;;;;;;;5041608;28;20024;-68
2022/01/27 05:58:06;;;;;;;;;;;;;;;;;;5031508;28;20512;-68
2022/01/27 06:00:31;;;;;;;;;;;;;;;;;;5039037;28;19916;-68
2022/01/27 06:02:56;;;;;;;;;;;;;;;;;;5037747;28;19922;-68
2022/01/27 06:05:21;;;;;;;;;;;;;;;;;;5038853;28;19921;-68
2022/01/27 06:07:47;;;;;;;;;;;;;;;;;;5040857;28;21673;-68
2022/01/27 06:10:12;;;;;;;;;;;;;;;;;;5035577;28;19913;-69
2022/01/27 06:12:37;;;;;;;;;;;;;;;;;;5042346;28;19956;-68
2022/01/27 06:15:02;;;;;;;;;;;;;;;;;;5039138;28;19917;-68
2022/01/27 06:17:29;;;;;;;;;;;;;;;;;;5043048;28;19921;-68
2022/01/27 06:19:55;;;;;;;;;;;;;;;;;;5039990;28;20598;-68
2022/01/27 06:22:20;;;;;;;;;;;;;;;;;;5041328;28;19927;-69
2022/01/27 06:24:45;;;;;;;;;;;;;;;;;;5042940;28;20003;-68
2022/01/27 06:27:11;;;;;;;;;;;;;;;;;;5042761;28;19956;-69
2022/01/27 06:29:36;;;;;;;;;;;;;;;;;;5042218;28;19913;-69
2022/01/27 06:32:01;;;;;;;;;;;;;;;;;;5041749;28;19916;-69
2022/01/27 06:34:26;;;;;;;;;;;;;;;;;;5040407;28;19956;-68
2022/01/27 06:36:51;;;;;;;;;;;;;;;;;;5040770;28;19913;-69
2022/01/27 06:39:16;;;;;;;;;;;;;;;;;;5042367;28;19950;-69
2022/01/27 06:41:43;;;;;;;;;;;;;;;;;;5038568;28;20039;-69
2022/01/27 06:44:08;;;;;;;;;;;;;;;;;;5037019;28;19913;-69
2022/01/27 06:46:35;;;;;;;;;;;;;;;;;;5040883;28;20548;-69
2022/01/27 06:49:00;;;;;;;;;;;;;;;;;;5044338;28;19916;-69
2022/01/27 06:51:26;;;;;;;;;;;;;;;;;;5040479;28;19916;-69
2022/01/27 06:53:51;;;;;;;;;;;;;;;;;;5023564;28;20288;-69
2022/01/27 06:56:17;;;;;;;;;;;;;;;;;;5043290;28;19920;-69
2022/01/27 06:58:42;;;;;;;;;;;;;;;;;;5032303;28;19909;-70
2022/01/27 07:01:07;;;;;;;;;;;;;;;;;;5037053;28;19913;-69
2022/01/27 07:03:32;;;;;;;;;;;;;;;;;;5040077;28;19925;-69
2022/01/27 07:05:57;;;;;;;;;;;;;;;;;;5034670;28;19917;-69
2022/01/27 07:08:22;;;;;;;;;;;;;;;;;;5039946;28;19909;-70
2022/01/27 07:10:47;;;;;;;;;;;;;;;;;;5043390;28;20366;-70
2022/01/27 07:13:12;;;;;;;;;;;;;;;;;;5032739;28;20031;-69
2022/01/27 07:15:38;;;;;;;;;;;;;;;;;;5039729;28;19913;-70
2022/01/27 07:18:03;;;;;;;;;;;;;;;;;;5036447;28;19913;-70
2022/01/27 07:20:28;;;;;;;;;;;;;;;;;;5041955;28;19913;-69
2022/01/27 07:22:53;;;;;;;;;;;;;;;;;;5040341;28;19920;-69
2022/01/27 07:25:18;;;;;;;;;;;;;;;;;;5035441;28;19920;-69
2022/01/27 07:27:44;;;;;;;;;;;;;;;;;;5036615;28;19909;-70
2022/01/27 07:30:09;;;;;;;;;;;;;;;;;;5029365;28;19959;-70
2022/01/27 07:32:34;;;;;;;;;;;;;;;;;;5039109;28;20366;-70
2022/01/27 07:35:01;;;;;;;;;;;;;;;;;;5040958;28;20393;-70
2022/01/27 07:37:26;;;;;;;;;;;;;;;;;;5038220;28;19909;-70
2022/01/27 07:39:51;;;;;;;;;;;;;;;;;;5041596;28;19973;-70
2022/01/27 07:42:16;;;;;;;;;;;;;;;;;;5037730;28;19975;-70
2022/01/27 07:44:41;;;;;;;;;;;;;;;;;;5040376;28;19920;-70
2022/01/27 07:47:06;;;;;;;;;;;;;;;;;;5036422;28;19917;-70
2022/01/27 07:49:31;;;;;;;;;;;;;;;;;;5037153;28;19913;-71
2022/01/27 07:51:56;;;;;;;;;;;;;;;;;;5038504;28;19921;-70
2022/01/27 07:54:22;;;;;;;;;;;;;;;;;;5035718;28;19929;-70
2022/01/27 07:56:47;;;;;;;;;;;;;;;;;;5041663;28;20008;-70
2022/01/27 07:59:12;;;;;;;;;;;;;;;;;;5043464;28;19971;-70
2022/01/27 08:01:37;;;;;;;;;;;;;;;;;;5042653;28;20212;-70
2022/01/27 08:04:02;;;;;;;;;;;;;;;;;;5043194;28;19920;-70
2022/01/27 08:06:27;;;;;;;;;;;;;;;;;;5041018;28;19949;-70
2022/01/27 08:08:52;;;;;;;;;;;;;;;;;;5033142;28;19928;-70
2022/01/27 08:11:18;;;;;;;;;;;;;;;;;;5035865;28;19920;-70
2022/01/27 08:13:43;;;;;;;;;;;;;;;;;;5037338;28;19913;-70
2022/01/27 08:16:08;;;;;;;;;;;;;;;;;;5039286;28;20383;-70
2022/01/27 08:18:33;;;;;;;;;;;;;;;;;;5033381;28;20010;-70
2022/01/27 08:20:59;;;;;;;;;;;;;;;;;;5033530;28;20384;-70
2022/01/27 08:23:24;;;;;;;;;;;;;;;;;;5039970;28;20005;-70
2022/01/27 08:25:58;;;;;;;;;;;;;;;;;;5032807;28;20408;-71
2022/01/27 08:28:31;;;;;;;;;;;;;;;;;;5030253;28;19909;-71
2022/01/27 08:30:58;;;;;;;;;;;;;;;;;;5035895;28;20392;-70
2022/01/27 08:33:24;;;;;;;;;;;;;;;;;;5035799;28;19999;-70
2022/01/27 08:35:49;;;;;;;;;;;;;;;;;;5039777;28;19912;-71
2022/01/27 08:38:14;;;;;;;;;;;;;;;;;;5032643;28;19916;-70
2022/01/27 08:40:39;;;;;;;;;;;;;;;;;;5039911;28;20003;-70
2022/01/27 08:43:04;;;;;;;;;;;;;;;;;;5041746;28;19913;-70
2022/01/27 08:45:30;;;;;;;;;;;;;;;;;;5031274;28;19913;-70
2022/01/27 08:47:57;;;;;;;;;;;;;;;;;;5040849;28;19936;-69
2022/01/27 08:50:24;;;;;;;;;;;;;;;;;;5037371;28;19919;-70
2022/01/27 08:52:49;;;;;;;;;;;;;;;;;;5038836;28;19913;-70
2022/01/27 08:55:14;;;;;;;;;;;;;;;;;;5035088;28;19991;-70
2022/01/27 08:57:39;;;;;;;;;;;;;;;;;;5034093;28;20256;-69
2022/01/27 09:00:04;;;;;;;;;;;;;;;;;;5032859;28;19917;-70
2022/01/27 09:02:29;;;;;;;;;;;;;;;;;;5036775;28;19924;-70
2022/01/27 09:04:55;;;;;;;;;;;;;;;;;;5041042;28;19943;-70
2022/01/27 09:07:20;;;;;;;;;;;;;;;;;;5030241;28;20051;-70
2022/01/27 09:09:45;;;;;;;;;;;;;;;;;;5034030;28;20434;-70
2022/01/27 09:12:10;;;;;;;;;;;;;;;;;;5039083;28;19909;-70
2022/01/27 09:14:35;;;;;;;;;;;;;;;;;;5034440;28;19913;-70
2022/01/27 09:17:00;;;;;;;;;;;;;;;;;;5043116;28;20374;-69
2022/01/27 09:19:26;;;;;;;;;;;;;;;;;;5039614;28;19956;-70
2022/01/27 09:21:53;;;;;;;;;;;;;;;;;;5035471;28;20352;-70
2022/01/27 09:24:23;;;;;;;;;;;;;;;;;;5039338;28;19933;-70
2022/01/27 09:29:13;;;;;;;;;;;;;;;;;;5037289;28;19921;-70
2022/01/27 09:31:38;;;;;;;;;;;;;;;;;;5037254;28;20350;-69
2022/01/27 09:34:03;;;;;;;;;;;;;;;;;;5039791;28;20288;-70
2022/01/27 09:36:28;;;;;;;;;;;;;;;;;;5034792;28;19931;-70
2022/01/27 09:38:54;;;;;;;;;;;;;;;;;;5036305;28;19916;-70
2022/01/27 09:41:20;;;;;;;;;;;;;;;;;;5037417;28;19920;-70
2022/01/27 09:43:45;;;;;;;;;;;;;;;;;;5034962;28;20315;-70
2022/01/27 09:46:10;;;;;;;;;;;;;;;;;;5037928;28;19986;-70
2022/01/27 09:48:36;;;;;;;;;;;;;;;;;;5031161;28;19917;-70
2022/01/27 09:51:23;;;;;;;;;;;;;;;;;;5026716;28;19921;-70
2022/01/27 09:53:46;;;;;;;;;;;;;;;;;;5032625;28;19917;-70
2022/01/27 09:56:12;;;;;;;;;;;;;;;;;;5030907;28;19968;-69
2022/01/27 09:58:37;;;;;;;;;;;;;;;;;;5032954;28;19970;-69
2022/01/27 10:01:04;;;;;;;;;;;;;;;;;;5034818;28;19927;-70
2022/01/27 10:03:30;;;;;;;;;;;;;;;;;;5030764;28;19970;-69
2022/01/27 10:05:55;;;;;;;;;;;;;;;;;;5039539;28;19943;-69
2022/01/27 10:08:21;;;;;;;;;;;;;;;;;;5038922;28;19916;-70
2022/01/27 10:10:47;;;;;;;;;;;;;;;;;;5032459;28;19916;-69
2022/01/27 10:13:12;;;;;;;;;;;;;;;;;;5034143;28;19927;-69
2022/01/27 10:15:37;;;;;;;;;;;;;;;;;;5035633;28;19987;-69
2022/01/27 10:18:02;;;;;;;;;;;;;;;;;;5031347;28;19917;-69
2022/01/27 10:20:28;;;;;;;;;;;;;;;;;;5036852;28;19920;-69
2022/01/27 10:22:53;;;;;;;;;;;;;;;;;;5037935;28;19967;-69
2022/01/27 10:25:21;;;;;;;;;;;;;;;;;;5041304;28;19921;-68
2022/01/27 10:27:57;;;;;;;;;;;;;;;;;;5041176;28;20377;-68
2022/01/27 10:32:50;;;;;;;;;;;;;;;;;;5041390;28;19924;-69
2022/01/27 10:35:15;;;;;;;;;;;;;;;;;;5040229;28;20229;-69
2022/01/27 10:37:40;;;;;;;;;;;;;;;;;;5031143;28;19948;-69
2022/01/27 10:40:05;;;;;;;;;;;;;;;;;;5026207;28;19920;-69
2022/01/27 10:42:30;;;;;;;;;;;;;;;;;;5037030;28;19951;-69
2022/01/27 10:44:56;;;;;;;;;;;;;;;;;;5038279;28;20006;-69
2022/01/27 10:47:27;;;;;;;;;;;;;;;;;;5038356;28;20054;-69
2022/01/27 10:49:58;;;;;;;;;;;;;;;;;;5029840;28;19917;-69
2022/01/27 10:52:38;;;;;;;;;;;;;;;;;;5039488;28;20442;-69
2022/01/27 10:55:03;;;;;;;;;;;;;;;;;;5035123;28;19921;-69
2022/01/27 10:57:28;;;;;;;;;;;;;;;;;;5034700;28;19985;-69
2022/01/27 10:59:53;;;;;;;;;;;;;;;;;;5043291;28;20057;-70
2022/01/27 11:02:18;;;;;;;;;;;;;;;;;;5041890;28;19934;-70
2022/01/27 11:04:43;;;;;;;;;;;;;;;;;;5031990;28;19925;-70
2022/01/27 11:07:11;;;;;;;;;;;;;;;;;;5037897;28;20289;-70
2022/01/27 11:09:40;;;;;;;;;;;;;;;;;;5040219;28;19935;-69
2022/01/27 11:12:12;;;;;;;;;;;;;;;;;;5032606;28;19917;-69
2022/01/27 11:14:38;;;;;;;;;;;;;;;;;;5041845;28;19913;-69
2022/01/27 11:17:03;;;;;;;;;;;;;;;;;;5033948;28;19924;-69
2022/01/27 11:24:28;;;;;;;;;;;;;;;;;;5037588;28;19926;-69
2022/01/27 11:26:53;;;;;;;;;;;;;;;;;;5041622;28;19913;-70
2022/01/27 11:29:18;;;;;;;;;;;;;;;;;;5038934;28;19921;-69
2022/01/27 11:31:43;;;;;;;;;;;;;;;;;;5035689;28;20023;-69
2022/01/27 11:34:09;;;;;;;;;;;;;;;;;;5034623;28;19991;-69
2022/01/27 11:36:36;;;;;;;;;;;;;;;;;;5038707;28;20008;-69
2022/01/27 11:39:01;;;;;;;;;;;;;;;;;;5034100;28;20444;-69
2022/01/27 11:41:27;;;;;;;;;;;;;;;;;;5033005;28;19927;-69
2022/01/27 11:43:52;;;;;;;;;;;;;;;;;;5029592;28;20002;-69
2022/01/27 11:46:20;;;;;;;;;;;;;;;;;;5035601;28;19921;-69
2022/01/27 11:48:46;;;;;;;;;;;;;;;;;;5041354;28;20005;-69
2022/01/27 11:51:12;;;;;;;;;;;;;;;;;;5036298;28;19917;-69
2022/01/27 11:53:40;;;;;;;;;;;;;;;;;;5040267;28;19959;-69
2022/01/27 11:56:05;;;;;;;;;;;;;;;;;;5038439;28;19952;-68
2022/01/27 11:58:31;;;;;;;;;;;;;;;;;;5041719;28;19971;-70
2022/01/27 12:00:56;;;;;;;;;;;;;;;;;;5035168;28;20401;-70
2022/01/27 12:03:21;;;;;;;;;;;;;;;;;;5033162;28;19929;-70
2022/01/27 12:05:46;;;;;;;;;;;;;;;;;;5037167;28;19916;-70
2022/01/27 12:08:12;;;;;;;;;;;;;;;;;;5038415;28;19924;-70
2022/01/27 12:10:37;;;;;;;;;;;;;;;;;;5034155;28;19921;-71
2022/01/27 12:13:02;;;;;;;;;;;;;;;;;;5033255;28;19923;-70
2022/01/27 12:15:27;;;;;;;;;;;;;;;;;;5035832;28;19967;-70
2022/01/27 12:17:52;;;;;;;;;;;;;;;;;;5041549;28;19913;-70
2022/01/27 12:20:20;;;;;;;;;;;;;;;;;;5051500;28;19920;-72
2022/01/27 12:22:51;;;;;;;;;;;;;;;;;;5036583;28;19978;-71
2022/01/27 12:25:16;;;;;;;;;;;;;;;;;;5037756;28;19913;-71
2022/01/27 12:27:42;;;;;;;;;;;;;;;;;;5035088;28;19913;-70
2022/01/27 12:30:07;;;;;;;;;;;;;;;;;;5034993;28;20381;-69
2022/01/27 12:32:32;;;;;;;;;;;;;;;;;;5033914;28;19921;-70
2022/01/27 12:34:57;;;;;;;;;;;;;;;;;;5033303;28;19920;-71
2022/01/27 12:37:23;;;;;;;;;;;;;;;;;;5038650;28;19923;-71
2022/01/27 12:39:48;;;;;;;;;;;;;;;;;;5040109;28;19921;-71
2022/01/27 12:42:15;;;;;;;;;;;;;;;;;;5037455;28;19916;-71
2022/01/27 12:44:43;;;;;;;;;;;;;;;;;;5035402;28;19917;-70
2022/01/27 12:47:09;;;;;;;;;;;;;;;;;;5030969;28;19995;-70
2022/01/27 12:49:38;;;;;;;;;;;;;;;;;;5041588;28;19952;-72
2022/01/27 12:52:06;;;;;;;;;;;;;;;;;;5030920;28;19917;-71
2022/01/27 12:54:31;;;;;;;;;;;;;;;;;;5035585;28;19943;-71
2022/01/27 12:56:56;;;;;;;;;;;;;;;;;;5033155;28;19931;-71
2022/01/27 12:59:21;;;;;;;;;;;;;;;;;;5035337;28;19924;-71
2022/01/27 13:01:46;;;;;;;;;;;;;;;;;;5034823;28;19924;-71
2022/01/27 13:04:12;;;;;;;;;;;;;;;;;;5034385;28;19928;-71
2022/01/27 13:06:37;;;;;;;;;;;;;;;;;;5035479;28;19913;-71
2022/01/27 13:09:02;;;;;;;;;;;;;;;;;;5026740;28;19920;-71
2022/01/27 13:11:27;;;;;;;;;;;;;;;;;;5031165;28;20424;-71
2022/01/27 13:13:52;;;;;;;;;;;;;;;;;;5038973;28;20316;-71
2022/01/27 13:16:21;;;;;;;;;;;;;;;;;;5036317;28;20601;-71
2022/01/27 13:18:56;;;;;;;;;;;;;;;;;;5033699;28;20274;-70
2022/01/27 13:21:24;;;;;;;;;;;;;;;;;;5036506;28;19924;-71
2022/01/27 13:23:49;;;;;;;;;;;;;;;;;;5040153;28;19952;-71
2022/01/27 13:26:17;;;;;;;;;;;;;;;;;;5039489;28;19974;-71
2022/01/27 13:28:45;;;;;;;;;;;;;;;;;;5029997;28;19929;-71
2022/01/27 13:31:12;;;;;;;;;;;;;;;;;;5037684;28;20289;-70
2022/01/27 13:33:37;;;;;;;;;;;;;;;;;;5028426;28;19924;-70
2022/01/27 13:36:02;;;;;;;;;;;;;;;;;;5039328;28;19917;-71
2022/01/27 13:38:30;;;;;;;;;;;;;;;;;;5033974;28;19913;-70
2022/01/27 13:43:39;;;;;;;;;;;;;;;;;;5039112;28;19924;-70
2022/01/27 13:46:04;;;;;;;;;;;;;;;;;;5034753;28;20365;-71
2022/01/27 13:48:29;;;;;;;;;;;;;;;;;;5039496;28;20007;-70
2022/01/27 13:50:54;;;;;;;;;;;;;;;;;;5038368;28;19921;-70
2022/01/27 13:53:20;;;;;;;;;;;;;;;;;;5033189;28;20776;-70
2022/01/27 13:55:45;;;;;;;;;;;;;;;;;;5038242;28;19916;-70
2022/01/27 13:58:10;;;;;;;;;;;;;;;;;;5042388;28;19913;-70
2022/01/27 14:00:37;;;;;;;;;;;;;;;;;;5015788;28;19921;-71
2022/01/27 14:03:02;;;;;;;;;;;;;;;;;;5039630;28;20452;-70
2022/01/27 14:05:27;;;;;;;;;;;;;;;;;;5040067;28;19924;-71
2022/01/27 14:07:52;;;;;;;;;;;;;;;;;;5034296;28;20529;-71
2022/01/27 14:10:19;;;;;;;;;;;;;;;;;;5039038;28;20055;-72
2022/01/27 14:12:44;;;;;;;;;;;;;;;;;;5037629;28;19920;-71
2022/01/27 14:15:09;;;;;;;;;;;;;;;;;;5039281;28;20309;-71
2022/01/27 14:17:34;;;;;;;;;;;;;;;;;;5045793;28;19919;-71
2022/01/27 14:20:00;;;;;;;;;;;;;;;;;;5036480;28;19917;-70
2022/01/27 14:22:28;;;;;;;;;;;;;;;;;;5031994;28;19944;-70
2022/01/27 14:25:01;;;;;;;;;;;;;;;;;;5036472;28;19928;-70
2022/01/27 14:27:26;;;;;;;;;;;;;;;;;;5037362;28;20503;-70
2022/01/27 14:29:51;;;;;;;;;;;;;;;;;;5033107;28;19999;-70
2022/01/27 14:32:16;;;;;;;;;;;;;;;;;;5038439;28;19979;-70
2022/01/27 14:34:44;;;;;;;;;;;;;;;;;;5037206;28;19951;-71
2022/01/27 14:37:09;;;;;;;;;;;;;;;;;;5033202;28;20427;-70
2022/01/27 14:39:34;;;;;;;;;;;;;;;;;;5035111;28;19921;-71
2022/01/27 14:41:59;;;;;;;;;;;;;;;;;;5036520;28;20452;-71
2022/01/27 14:44:25;;;;;;;;;;;;;;;;;;5044019;28;19928;-71
2022/01/27 14:46:50;;;;;;;;;;;;;;;;;;5041587;28;19938;-71
2022/01/27 14:49:16;;;;;;;;;;;;;;;;;;5041240;28;19913;-71
2022/01/27 14:51:44;;;;;;;;;;;;;;;;;;5044140;28;19995;-70
2022/01/27 14:54:09;;;;;;;;;;;;;;;;;;5035984;28;20511;-70
2022/01/27 14:56:34;;;;;;;;;;;;;;;;;;5040150;28;19917;-70
2022/01/27 14:58:59;;;;;;;;;;;;;;;;;;5035584;28;19955;-70
2022/01/27 15:01:24;;;;;;;;;;;;;;;;;;5038152;28;20028;-70
2022/01/27 15:03:50;;;;;;;;;;;;;;;;;;5038314;28;19928;-70
2022/01/27 15:06:15;;;;;;;;;;;;;;;;;;5037054;28;19975;-70
2022/01/27 15:08:40;;;;;;;;;;;;;;;;;;5035252;28;19927;-70
2022/01/27 15:11:05;;;;;;;;;;;;;;;;;;5038784;28;19971;-70
2022/01/27 15:13:30;;;;;;;;;;;;;;;;;;5032781;28;20594;-70
2022/01/27 15:18:49;;;;;;;;;;;;;;;;;;5032797;28;19920;-70
2022/01/27 15:21:14;;;;;;;;;;;;;;;;;;5035729;28;19924;-70
2022/01/27 15:23:40;;;;;;;;;;;;;;;;;;5031689;28;19986;-70
2022/01/27 15:26:05;;;;;;;;;;;;;;;;;;5037394;28;19944;-70
2022/01/27 15:28:31;;;;;;;;;;;;;;;;;;5035280;28;19924;-69
2022/01/27 15:30:57;;;;;;;;;;;;;;;;;;5033562;28;20508;-70
2022/01/27 15:33:23;;;;;;;;;;;;;;;;;;5028928;28;19912;-70
2022/01/27 15:35:48;;;;;;;;;;;;;;;;;;5034987;28;19948;-70
2022/01/27 15:38:13;;;;;;;;;;;;;;;;;;5032478;28;19921;-69
2022/01/27 15:40:39;;;;;;;;;;;;;;;;;;5040408;28;19921;-70
2022/01/27 15:43:04;;;;;;;;;;;;;;;;;;5033221;28;19975;-69
2022/01/27 15:45:29;;;;;;;;;;;;;;;;;;5039102;28;19944;-69
2022/01/27 15:47:55;;;;;;;;;;;;;;;;;;5031540;28;20462;-69
2022/01/27 15:50:20;;;;;;;;;;;;;;;;;;5039237;28;19920;-69
2022/01/27 15:52:45;;;;;;;;;;;;;;;;;;5034383;28;19920;-69
2022/01/27 15:55:10;;;;;;;;;;;;;;;;;;5028432;28;20449;-69
2022/01/27 15:57:35;;;;;;;;;;;;;;;;;;5034951;28;19921;-69
2022/01/27 16:00:00;;;;;;;;;;;;;;;;;;5033750;28;19995;-69
2022/01/27 16:02:25;;;;;;;;;;;;;;;;;;5033868;28;19975;-69
2022/01/27 16:04:50;;;;;;;;;;;;;;;;;;5035984;28;20376;-69
2022/01/27 16:07:16;;;;;;;;;;;;;;;;;;5041964;28;20785;-70
2022/01/27 16:09:41;;;;;;;;;;;;;;;;;;5034374;28;19940;-70
2022/01/27 16:12:06;;;;;;;;;;;;;;;;;;5035382;28;19913;-70
2022/01/27 16:14:31;;;;;;;;;;;;;;;;;;5029516;28;19916;-70
2022/01/27 16:16:56;;;;;;;;;;;;;;;;;;5041048;28;19917;-70
2022/01/27 16:19:21;;;;;;;;;;;;;;;;;;5038971;28;19920;-70
2022/01/27 16:21:46;;;;;;;;;;;;;;;;;;5037202;28;19916;-70
2022/01/27 16:24:12;;;;;;;;;;;;;;;;;;5038479;28;20351;-70
2022/01/27 16:26:37;;;;;;;;;;;;;;;;;;5040634;28;19917;-70
2022/01/27 16:29:02;;;;;;;;;;;;;;;;;;5035011;28;20435;-70
2022/01/27 16:31:27;;;;;;;;;;;;;;;;;;5036106;28;19974;-70
2022/01/27 16:33:52;;;;;;;;;;;;;;;;;;5033496;28;19917;-69
2022/01/27 16:36:17;;;;;;;;;;;;;;;;;;5034574;28;20397;-70
2022/01/27 16:38:42;;;;;;;;;;;;;;;;;;5032326;28;20542;-69
2022/01/27 16:41:08;;;;;;;;;;;;;;;;;;5040370;28;19913;-69
2022/01/27 16:43:33;;;;;;;;;;;;;;;;;;5039231;28;19917;-70
2022/01/27 16:45:58;;;;;;;;;;;;;;;;;;5034321;28;19916;-69
2022/01/27 16:48:23;;;;;;;;;;;;;;;;;;5040349;28;19978;-68
2022/01/27 16:50:49;;;;;;;;;;;;;;;;;;5035339;28;19939;-69
2022/01/27 16:53:14;;;;;;;;;;;;;;;;;;5037523;28;20407;-69
2022/01/27 16:55:39;;;;;;;;;;;;;;;;;;5036224;28;20417;-69
2022/01/27 16:58:04;;;;;;;;;;;;;;;;;;5037475;28;20016;-69
2022/01/27 17:00:29;;;;;;;;;;;;;;;;;;5031945;28;20007;-69
2022/01/27 17:02:54;;;;;;;;;;;;;;;;;;5036483;28;20492;-68
2022/01/27 17:05:19;;;;;;;;;;;;;;;;;;5032362;28;19921;-69
2022/01/27 17:07:45;;;;;;;;;;;;;;;;;;5036286;28;20000;-69
2022/01/27 17:10:10;;;;;;;;;;;;;;;;;;5038508;28;19921;-69
2022/01/27 17:12:35;;;;;;;;;;;;;;;;;;5032401;28;19917;-69
2022/01/27 17:15:00;;;;;;;;;;;;;;;;;;5036094;28;19916;-69
2022/01/27 17:17:27;;;;;;;;;;;;;;;;;;5029651;28;19992;-69
2022/01/27 17:19:53;;;;;;;;;;;;;;;;;;5029944;28;19956;-69
2022/01/27 17:22:19;;;;;;;;;;;;;;;;;;5029751;28;19925;-69
2022/01/27 17:24:44;;;;;;;;;;;;;;;;;;5032735;28;19921;-69
2022/01/27 17:27:09;;;;;;;;;;;;;;;;;;5031620;28;19975;-69
2022/01/27 17:29:34;;;;;;;;;;;;;;;;;;5036598;28;19917;-69
2022/01/27 17:32:00;;;;;;;;;;;;;;;;;;5036371;28;20712;-69